Langley Air Force Base
KLFI : now visible

Airfield :











YOU CAN JOIN US ON...

 
LOGIN :

Register | Disclaimer

   EN    FR    IT 

 









Legend :    VFR   Marginal VFR   IFR   Intensive IFR   Very Intensive IFR
Visi :
Ceiling :
>= 8 km
>= 3000ft
5 to 8 km
1000 to 3000 ft
1500m to 5 km
500 to 1000 ft
800 to 1500m
200 to 500 ft
< 800m
< 200 ft
Symbols :   Thunderstorms  Fog  Heavy snow  Heavy precipitations  Wind > 20 kt






- Airport Elevation : 11 ft


KLFI - Langley Air Force Base

CURRENT METAR :
  • 190208Z 00000KT 5SM BR OVC050 08/08 A2977 RMK AO2A DZE0156RAB0156E0158DZB0158E08 SLP088

EXPIRED METARs :
  • 190156Z COR AUTO 00000KT 6SM -DZ OVC055 08/08 A2977 RMK AO2 DZB46E48RAB48 SLP088 P0000 T00750075 COR 0159
  • 190146Z AUTO 00000KT 5SM DZ OVC055 08/08 A2976 RMK AO2 DZB46 SLP084
  • 190056Z AUTO 18003KT 10SM OVC060 08/08 A2977 RMK AO2 DZE02RAB02E26DZB26E49 SLP088 P0002 T00750075
  • 182356Z 21005KT 10SM -DZ FEW027 SCT036 OVC065 08/08 A2979 RMK AO2A DZE33DZB35 SLP094 P0000 60000 T00760075 10088 20076 52010
  • 182342Z AUTO 19006KT 10SM -DZ SCT028 BKN065 08/08 A2978 RMK AO2 DZE33DZB35 SLP091
  • 182326Z AUTO 18006KT 9SM -DZ FEW018 08/07 A2977 RMK AO2 SLP088

TAF TAF KLFI
Valid from the 19 at 02:00 until the 20 at 08:00 UTC


190200Z 1902/2008 VRB06KT 8000 -DZ BKN050 QNH2976INS
BECMG 1905/1906 VRB06KT 9999 NSW BKN020 QNH2982INS
BECMG 1917/1918 VRB06KT 9999 BKN030 QNH2984INS TX11/1919Z TN05/1910Z



MET'MAP, your aeronautical weather chart ! - Copyright ORBIFLY December 2007 - Disclaimer

ORBIFLY MET'MAP TEAM :

Programming & Development : Alexandra Zaïnal
Concept & Development : Baudouin d'Aumeries
Co-Development & Prog : Marc-Olivier Méhu
Technical & hardware support : Manuel Goepfert

Contact : metmap@orbifly.com




SOURCES & CREDITS :

   NOAA       Earth
Advisory